Time;durP1;ratioP1;P1;durP2;ratioP2;P2;SDS_P1;SDS_P2;PMS_P1;PMS_P2;Temp;Humidity;BMP_temperature;BMP_pressure;BME280_temperature;BME280_humidity;BME280_pressure;Samples;Min_cycle;Max_cycle;Signal;HPM_P1;HPM_P2
2024/02/25 00:02:05;;;;;;;2.03;1.10;;;;;;;;;;4953589;28;20460;-85
2024/02/25 00:04:44;;;;;;;0.80;0.80;;;;;;;;;;4950008;28;20534;-85
2024/02/25 00:07:25;;;;;;;1.03;1.00;;;;;;;;;;4956168;28;20451;-86
2024/02/25 00:10:00;;;;;;;0.80;0.70;;;;;;;;;;4973891;28;20440;-86
2024/02/25 00:12:34;;;;;;;1.33;1.10;;;;;;;;;;4980357;28;20482;-84
2024/02/25 00:15:13;;;;;;;4.40;1.23;;;;;;;;;;4956871;28;20566;-81
2024/02/25 00:17:54;;;;;;;2.70;1.07;;;;;;;;;;4956371;28;20486;-84
2024/02/25 00:20:23;;;;;;;2.40;1.13;;;;;;;;;;4965445;28;20523;-83
2024/02/25 00:22:51;;;;;;;1.20;1.10;;;;;;;;;;4972885;28;20466;-84
2024/02/25 00:25:20;;;;;;;1.40;0.87;;;;;;;;;;4972373;28;20476;-83
2024/02/25 00:27:47;;;;;;;2.50;0.80;;;;;;;;;;4972446;28;20490;-83
2024/02/25 00:30:15;;;;;;;1.33;0.80;;;;;;;;;;4967058;28;20455;-83
2024/02/25 00:32:42;;;;;;;1.50;1.30;;;;;;;;;;4959474;28;20472;-84
2024/02/25 00:35:09;;;;;;;0.93;0.83;;;;;;;;;;4954192;28;20802;-84
2024/02/25 00:37:38;;;;;;;0.80;0.70;;;;;;;;;;4950888;28;20461;-85
2024/02/25 00:40:05;;;;;;;0.73;0.70;;;;;;;;;;4942108;28;20460;-80
2024/02/25 00:42:33;;;;;;;1.20;1.10;;;;;;;;;;4937191;28;20481;-84
2024/02/25 00:45:00;;;;;;;1.43;1.10;;;;;;;;;;4939034;28;20555;-85
2024/02/25 00:47:30;;;;;;;0.90;0.90;;;;;;;;;;4941724;28;20440;-84
2024/02/25 00:49:57;;;;;;;1.20;0.77;;;;;;;;;;4944353;28;20459;-82
2024/02/25 00:52:26;;;;;;;0.67;0.50;;;;;;;;;;4933177;28;20485;-85
2024/02/25 00:54:53;;;;;;;1.10;0.80;;;;;;;;;;4932746;28;21178;-86
2024/02/25 00:57:20;;;;;;;0.93;0.80;;;;;;;;;;4949642;28;20492;-83
2024/02/25 00:59:48;;;;;;;0.80;0.80;;;;;;;;;;4950032;28;20465;-82
2024/02/25 01:02:15;;;;;;;0.80;0.73;;;;;;;;;;4932743;28;20496;-83
2024/02/25 01:04:42;;;;;;;0.90;0.90;;;;;;;;;;4935097;28;20487;-83
2024/02/25 01:07:09;;;;;;;0.60;0.60;;;;;;;;;;4951924;28;20521;-84
2024/02/25 01:09:37;;;;;;;1.07;0.80;;;;;;;;;;4948818;28;20466;-83
2024/02/25 01:12:04;;;;;;;2.50;0.80;;;;;;;;;;4950543;28;20460;-82
2024/02/25 01:14:31;;;;;;;1.10;1.00;;;;;;;;;;4932373;28;20542;-83
2024/02/25 01:16:59;;;;;;;1.20;0.90;;;;;;;;;;4928736;28;20603;-84
2024/02/25 01:19:26;;;;;;;2.27;1.03;;;;;;;;;;4937182;28;20604;-83
2024/02/25 01:21:53;;;;;;;0.87;0.87;;;;;;;;;;4950754;28;20468;-85
2024/02/25 01:24:24;;;;;;;0.77;0.70;;;;;;;;;;4938225;28;21333;-86
2024/02/25 01:26:51;;;;;;;1.47;1.20;;;;;;;;;;4943573;28;20500;-84
2024/02/25 01:29:19;;;;;;;2.53;0.80;;;;;;;;;;4936521;28;20445;-84
2024/02/25 01:31:48;;;;;;;1.13;1.03;;;;;;;;;;4954947;28;20461;-83
2024/02/25 01:34:16;;;;;;;1.20;1.10;;;;;;;;;;4944223;28;20468;-84
2024/02/25 01:36:43;;;;;;;1.10;0.90;;;;;;;;;;4951301;28;20536;-83
2024/02/25 01:39:10;;;;;;;1.70;1.00;;;;;;;;;;4981978;28;20476;-86
2024/02/25 01:41:37;;;;;;;0.90;0.90;;;;;;;;;;4969591;28;20515;-86
2024/02/25 01:44:04;;;;;;;0.80;0.63;;;;;;;;;;4983326;28;20526;-85
2024/02/25 01:46:32;;;;;;;2.07;1.03;;;;;;;;;;4985569;28;20455;-85
2024/02/25 01:48:59;;;;;;;1.37;1.00;;;;;;;;;;4955853;28;20456;-84
2024/02/25 01:51:27;;;;;;;1.20;1.10;;;;;;;;;;4947601;28;20820;-86
2024/02/25 01:53:54;;;;;;;1.57;1.47;;;;;;;;;;4948588;28;20473;-84
2024/02/25 01:56:21;;;;;;;1.10;1.00;;;;;;;;;;4947830;28;20542;-84
2024/02/25 01:58:53;;;;;;;1.00;0.90;;;;;;;;;;4952843;28;20485;-85
2024/02/25 02:01:20;;;;;;;1.33;1.00;;;;;;;;;;4962094;28;20477;-83
2024/02/25 02:03:47;;;;;;;1.10;1.00;;;;;;;;;;4957836;28;20488;-87
2024/02/25 02:06:15;;;;;;;1.10;0.90;;;;;;;;;;4946064;28;20466;-85
2024/02/25 02:08:42;;;;;;;2.07;1.10;;;;;;;;;;4957135;28;20860;-85
2024/02/25 02:11:29;;;;;;;1.43;1.27;;;;;;;;;;4948225;28;20466;-83
2024/02/25 02:14:01;;;;;;;2.00;0.90;;;;;;;;;;4944055;28;20505;-84
2024/02/25 02:16:29;;;;;;;1.30;1.20;;;;;;;;;;4952596;28;21194;-84
2024/02/25 02:18:56;;;;;;;1.17;0.93;;;;;;;;;;4955922;28;20482;-86
2024/02/25 02:21:31;;;;;;;1.20;0.97;;;;;;;;;;4940028;28;20464;-85
2024/02/25 02:23:59;;;;;;;0.83;0.80;;;;;;;;;;4944192;28;20495;-84
2024/02/25 02:26:27;;;;;;;0.70;0.70;;;;;;;;;;4936087;28;20495;-84
2024/02/25 02:28:55;;;;;;;1.50;1.20;;;;;;;;;;4934776;28;20486;-85
2024/02/25 02:31:24;;;;;;;1.23;0.93;;;;;;;;;;4938389;28;20533;-83
2024/02/25 02:33:52;;;;;;;1.37;1.23;;;;;;;;;;4933012;28;20885;-85
2024/02/25 02:36:20;;;;;;;1.60;1.07;;;;;;;;;;4941983;28;20478;-85
2024/02/25 02:38:48;;;;;;;1.33;0.70;;;;;;;;;;4937506;28;20456;-85
2024/02/25 02:41:19;;;;;;;1.17;1.07;;;;;;;;;;4954524;28;20543;-85
2024/02/25 02:43:46;;;;;;;0.80;0.57;;;;;;;;;;4936255;28;20563;-85
2024/02/25 02:46:14;;;;;;;0.70;0.70;;;;;;;;;;4936440;28;20464;-86
2024/02/25 02:48:41;;;;;;;1.00;0.93;;;;;;;;;;4939258;28;20495;-86
2024/02/25 02:51:09;;;;;;;1.53;0.80;;;;;;;;;;4956124;28;20461;-86
2024/02/25 02:53:36;;;;;;;0.80;0.80;;;;;;;;;;4935718;28;21128;-85
2024/02/25 02:56:03;;;;;;;0.60;0.60;;;;;;;;;;4955923;28;20456;-85
2024/02/25 02:58:31;;;;;;;1.27;0.80;;;;;;;;;;4941134;28;20455;-84
2024/02/25 03:00:58;;;;;;;1.00;0.80;;;;;;;;;;4939492;28;20732;-85
2024/02/25 03:03:25;;;;;;;0.50;0.50;;;;;;;;;;4933409;28;20568;-83
2024/02/25 03:05:55;;;;;;;5.13;0.80;;;;;;;;;;4946446;28;20502;-84
2024/02/25 03:08:25;;;;;;;0.60;0.60;;;;;;;;;;4963558;28;20617;-87
2024/02/25 03:10:55;;;;;;;0.97;0.83;;;;;;;;;;4953041;28;20457;-84
2024/02/25 03:13:22;;;;;;;2.43;0.73;;;;;;;;;;4934324;28;20544;-85
2024/02/25 03:15:52;;;;;;;0.93;0.67;;;;;;;;;;4957447;28;20515;-85
2024/02/25 03:18:20;;;;;;;0.80;0.80;;;;;;;;;;4937869;28;20649;-87
2024/02/25 03:20:54;;;;;;;0.80;0.70;;;;;;;;;;4957411;28;20456;-85
2024/02/25 03:23:21;;;;;;;0.90;0.70;;;;;;;;;;4961759;28;20480;-85
2024/02/25 03:25:48;;;;;;;3.03;0.80;;;;;;;;;;4961767;28;20485;-87
2024/02/25 03:28:19;;;;;;;1.40;0.60;;;;;;;;;;4943164;28;20480;-86
2024/02/25 03:30:49;;;;;;;0.70;0.70;;;;;;;;;;4960845;28;20543;-86
2024/02/25 03:33:16;;;;;;;0.80;0.80;;;;;;;;;;4944520;28;20479;-85
2024/02/25 03:35:46;;;;;;;0.70;0.70;;;;;;;;;;4945897;28;20464;-85
2024/02/25 03:38:13;;;;;;;0.60;0.60;;;;;;;;;;4957365;28;20548;-86
2024/02/25 03:40:40;;;;;;;0.90;0.80;;;;;;;;;;4940197;28;21382;-86
2024/02/25 03:43:37;;;;;;;1.00;0.73;;;;;;;;;;4939442;28;20472;-86
2024/02/25 03:46:09;;;;;;;1.13;0.63;;;;;;;;;;4958327;28;20486;-86
2024/02/25 03:48:42;;;;;;;1.57;0.83;;;;;;;;;;4946615;28;20456;-85
2024/02/25 03:51:11;;;;;;;0.80;0.70;;;;;;;;;;4947890;28;20881;-88
2024/02/25 03:53:43;;;;;;;0.70;0.70;;;;;;;;;;4954807;28;20461;-85
2024/02/25 03:56:27;;;;;;;0.83;0.83;;;;;;;;;;4945580;28;21165;-86
2024/02/25 03:58:54;;;;;;;1.10;0.63;;;;;;;;;;4964171;28;20472;-86
2024/02/25 04:01:24;;;;;;;0.63;0.63;;;;;;;;;;4983433;28;20539;-86
2024/02/25 04:03:53;;;;;;;0.80;0.60;;;;;;;;;;4960739;28;20510;-87
2024/02/25 04:06:22;;;;;;;0.90;0.90;;;;;;;;;;4965235;28;20491;-83
2024/02/25 04:08:50;;;;;;;0.70;0.70;;;;;;;;;;4944947;28;20457;-85
2024/02/25 04:11:18;;;;;;;1.50;0.93;;;;;;;;;;4953608;28;20445;-86
2024/02/25 04:13:45;;;;;;;1.53;0.70;;;;;;;;;;4954561;28;20504;-84
2024/02/25 04:16:12;;;;;;;0.83;0.83;;;;;;;;;;4966197;28;20470;-85
2024/02/25 04:18:44;;;;;;;1.03;0.80;;;;;;;;;;4963108;28;20542;-85
2024/02/25 04:21:11;;;;;;;0.60;0.60;;;;;;;;;;4960950;28;20457;-84
2024/02/25 04:23:39;;;;;;;0.43;0.43;;;;;;;;;;4940842;28;20551;-84
2024/02/25 04:26:09;;;;;;;0.83;0.80;;;;;;;;;;4942708;28;21055;-84
2024/02/25 04:28:36;;;;;;;2.00;1.00;;;;;;;;;;4950103;28;21023;-85
2024/02/25 04:31:03;;;;;;;0.70;0.70;;;;;;;;;;4958594;28;20477;-86
2024/02/25 04:33:31;;;;;;;0.93;0.73;;;;;;;;;;4960091;28;20480;-84
2024/02/25 04:35:59;;;;;;;2.30;0.60;;;;;;;;;;4940295;28;20559;-85
2024/02/25 04:38:26;;;;;;;1.30;0.63;;;;;;;;;;4942657;28;20480;-85
2024/02/25 04:40:58;;;;;;;0.60;0.60;;;;;;;;;;4938473;28;20458;-86
2024/02/25 04:43:31;;;;;;;0.60;0.60;;;;;;;;;;4954971;28;20484;-85
2024/02/25 04:46:04;;;;;;;0.77;0.70;;;;;;;;;;4940078;28;20476;-84
2024/02/25 04:48:31;;;;;;;0.50;0.50;;;;;;;;;;4938657;28;20438;-84
2024/02/25 04:50:58;;;;;;;0.60;0.60;;;;;;;;;;4938328;28;20481;-86
2024/02/25 04:53:31;;;;;;;0.70;0.60;;;;;;;;;;4936555;28;20499;-84
2024/02/25 04:56:00;;;;;;;0.80;0.70;;;;;;;;;;4954069;28;20460;-85
2024/02/25 04:58:30;;;;;;;0.60;0.60;;;;;;;;;;4939029;28;20460;-84
2024/02/25 05:01:04;;;;;;;0.60;0.60;;;;;;;;;;4942836;28;20559;-83
2024/02/25 05:03:38;;;;;;;2.10;0.60;;;;;;;;;;4937884;28;20477;-85
2024/02/25 05:06:10;;;;;;;0.93;0.83;;;;;;;;;;4936409;28;20495;-85
2024/02/25 05:08:40;;;;;;;0.90;0.80;;;;;;;;;;4937550;28;20441;-85
2024/02/25 05:11:15;;;;;;;1.97;0.60;;;;;;;;;;4936338;28;20952;-86
2024/02/25 05:13:44;;;;;;;3.47;0.87;;;;;;;;;;4938104;28;20567;-85
2024/02/25 05:16:24;;;;;;;0.60;0.60;;;;;;;;;;4938294;28;20518;-83
2024/02/25 05:18:57;;;;;;;1.00;0.80;;;;;;;;;;4936295;28;20962;-83
2024/02/25 05:21:26;;;;;;;1.00;0.90;;;;;;;;;;4952009;28;20468;-86
2024/02/25 05:23:54;;;;;;;0.80;0.70;;;;;;;;;;4952969;28;20491;-83
2024/02/25 05:26:21;;;;;;;2.60;1.07;;;;;;;;;;4938005;28;22011;-85
2024/02/25 05:28:50;;;;;;;1.27;1.00;;;;;;;;;;4938124;28;20481;-84
2024/02/25 05:31:17;;;;;;;1.40;0.90;;;;;;;;;;4934125;28;20464;-86
2024/02/25 05:33:47;;;;;;;1.27;1.10;;;;;;;;;;4951181;28;20469;-84
2024/02/25 05:36:16;;;;;;;2.00;0.90;;;;;;;;;;4951263;28;20452;-84
2024/02/25 05:38:43;;;;;;;6.83;0.80;;;;;;;;;;4936658;28;20551;-88
2024/02/25 05:41:12;;;;;;;1.30;0.90;;;;;;;;;;4938804;28;20488;-85
2024/02/25 05:43:39;;;;;;;0.80;0.80;;;;;;;;;;4934226;28;20512;-84
2024/02/25 05:46:09;;;;;;;1.00;1.00;;;;;;;;;;4938090;28;20489;-85
2024/02/25 05:48:36;;;;;;;0.90;0.90;;;;;;;;;;4938353;28;20450;-84
2024/02/25 05:51:07;;;;;;;0.77;0.77;;;;;;;;;;4934175;28;20444;-85
2024/02/25 05:53:34;;;;;;;1.37;0.93;;;;;;;;;;4940891;28;20899;-84
2024/02/25 05:56:04;;;;;;;0.80;0.80;;;;;;;;;;4938015;28;20456;-84
2024/02/25 05:58:35;;;;;;;1.20;1.10;;;;;;;;;;4957096;28;20471;-85
2024/02/25 06:01:03;;;;;;;0.90;0.90;;;;;;;;;;4965316;28;20472;-87
2024/02/25 06:03:30;;;;;;;0.90;0.80;;;;;;;;;;4948204;28;20478;-85
2024/02/25 06:05:57;;;;;;;0.70;0.70;;;;;;;;;;4923356;28;20495;-85
2024/02/25 06:08:30;;;;;;;1.87;0.90;;;;;;;;;;4953203;28;20507;-85
2024/02/25 06:11:02;;;;;;;0.80;0.77;;;;;;;;;;4944985;28;20457;-85
2024/02/25 06:13:29;;;;;;;1.43;0.90;;;;;;;;;;4937438;28;20540;-84
2024/02/25 06:15:57;;;;;;;0.80;0.80;;;;;;;;;;4936292;28;20460;-85
2024/02/25 06:18:24;;;;;;;0.80;0.80;;;;;;;;;;4952918;28;20456;-85
2024/02/25 06:20:54;;;;;;;1.90;1.17;;;;;;;;;;4954240;28;20468;-85
2024/02/25 06:23:21;;;;;;;0.70;0.70;;;;;;;;;;4938067;28;20480;-85
2024/02/25 06:26:12;;;;;;;1.07;0.80;;;;;;;;;;4936885;28;20948;-87
2024/02/25 06:29:07;;;;;;;1.00;0.90;;;;;;;;;;4935831;28;20464;-85
2024/02/25 06:31:37;;;;;;;0.80;0.80;;;;;;;;;;4938300;28;20833;-86
2024/02/25 06:34:04;;;;;;;0.97;0.97;;;;;;;;;;4946978;28;20479;-86
2024/02/25 06:36:38;;;;;;;1.47;1.30;;;;;;;;;;4955618;28;20488;-85
2024/02/25 06:39:08;;;;;;;0.97;0.70;;;;;;;;;;4944787;28;20491;-87
2024/02/25 06:41:40;;;;;;;0.83;0.83;;;;;;;;;;4946181;28;20535;-85
2024/02/25 06:44:12;;;;;;;1.27;1.00;;;;;;;;;;4953825;28;20637;-86
2024/02/25 06:46:45;;;;;;;1.20;1.10;;;;;;;;;;4935397;28;20525;-84
2024/02/25 06:49:15;;;;;;;0.77;0.70;;;;;;;;;;4953532;28;20555;-87
2024/02/25 06:51:45;;;;;;;0.80;0.70;;;;;;;;;;4954457;28;20468;-86
2024/02/25 06:54:12;;;;;;;1.20;1.10;;;;;;;;;;4964370;28;20575;-86
2024/02/25 06:56:53;;;;;;;1.40;0.90;;;;;;;;;;4960453;28;20574;-86
2024/02/25 06:59:27;;;;;;;3.73;0.73;;;;;;;;;;4938557;28;20453;-86
2024/02/25 07:01:59;;;;;;;1.07;0.93;;;;;;;;;;4939282;28;20473;-86
2024/02/25 07:04:37;;;;;;;0.87;0.77;;;;;;;;;;4940645;28;20463;-86
2024/02/25 07:07:09;;;;;;;1.10;1.10;;;;;;;;;;4938067;28;20996;-85
2024/02/25 07:09:43;;;;;;;0.73;0.73;;;;;;;;;;4938700;28;20453;-86
2024/02/25 07:12:15;;;;;;;0.57;0.50;;;;;;;;;;4946949;28;20866;-87
2024/02/25 07:14:57;;;;;;;0.93;0.70;;;;;;;;;;4957623;28;20567;-86
2024/02/25 07:17:27;;;;;;;0.70;0.53;;;;;;;;;;4939498;28;20528;-86
2024/02/25 07:19:57;;;;;;;1.43;0.50;;;;;;;;;;4939724;28;20903;-87
2024/02/25 07:22:38;;;;;;;0.67;0.67;;;;;;;;;;4940055;28;20510;-87
2024/02/25 07:25:09;;;;;;;1.57;0.53;;;;;;;;;;4946556;28;20487;-84
2024/02/25 07:27:41;;;;;;;0.83;0.60;;;;;;;;;;4958164;28;20432;-85
2024/02/25 07:30:16;;;;;;;0.87;0.60;;;;;;;;;;4966873;28;21284;-87
2024/02/25 07:32:57;;;;;;;0.73;0.60;;;;;;;;;;4968929;28;20476;-87
2024/02/25 07:35:33;;;;;;;0.93;0.53;;;;;;;;;;4953561;28;20607;-87
2024/02/25 07:38:08;;;;;;;0.60;0.50;;;;;;;;;;4959329;28;20460;-86
2024/02/25 07:40:41;;;;;;;0.50;0.50;;;;;;;;;;4943625;28;20473;-84
2024/02/25 07:43:21;;;;;;;0.50;0.50;;;;;;;;;;4953365;28;20486;-83
2024/02/25 07:46:06;;;;;;;0.80;0.60;;;;;;;;;;4939878;28;20501;-84
2024/02/25 07:48:45;;;;;;;0.63;0.60;;;;;;;;;;4957181;28;20465;-87
2024/02/25 07:51:25;;;;;;;0.70;0.70;;;;;;;;;;4941362;28;20492;-86
2024/02/25 07:54:01;;;;;;;0.57;0.57;;;;;;;;;;4946339;28;20475;-86
2024/02/25 07:56:46;;;;;;;0.77;0.77;;;;;;;;;;4956449;28;20549;-85
2024/02/25 07:59:31;;;;;;;0.53;0.43;;;;;;;;;;4958173;28;20456;-86
2024/02/25 08:02:01;;;;;;;1.53;0.60;;;;;;;;;;4948495;28;20519;-84
2024/02/25 08:04:37;;;;;;;0.50;0.50;;;;;;;;;;4942478;28;20471;-85
2024/02/25 08:07:13;;;;;;;1.10;0.70;;;;;;;;;;4944873;28;20510;-86
2024/02/25 08:09:54;;;;;;;0.73;0.50;;;;;;;;;;4953284;28;21326;-84
2024/02/25 08:12:27;;;;;;;0.70;0.70;;;;;;;;;;4939061;28;20754;-84
2024/02/25 08:14:57;;;;;;;0.87;0.87;;;;;;;;;;4960829;28;20460;-85
2024/02/25 08:17:33;;;;;;;0.50;0.47;;;;;;;;;;4957477;28;20532;-85
2024/02/25 08:20:21;;;;;;;0.87;0.50;;;;;;;;;;4959082;28;20442;-85
2024/02/25 08:22:57;;;;;;;0.80;0.60;;;;;;;;;;4968351;28;20527;-85
2024/02/25 08:25:27;;;;;;;0.40;0.37;;;;;;;;;;4972266;28;20472;-87
2024/02/25 08:27:58;;;;;;;1.37;0.70;;;;;;;;;;4987944;28;20444;-86
2024/02/25 08:30:35;;;;;;;0.50;0.50;;;;;;;;;;4977939;28;20464;-88
2024/02/25 08:33:09;;;;;;;0.63;0.60;;;;;;;;;;4977091;28;20531;-87
2024/02/25 08:35:36;;;;;;;0.77;0.77;;;;;;;;;;4990618;28;20492;-86
2024/02/25 08:38:13;;;;;;;0.40;0.40;;;;;;;;;;4978084;28;20452;-84
2024/02/25 08:40:45;;;;;;;0.60;0.40;;;;;;;;;;4975207;28;20684;-86
2024/02/25 08:43:41;;;;;;;0.60;0.60;;;;;;;;;;4975742;28;20465;-86
2024/02/25 08:46:17;;;;;;;0.77;0.67;;;;;;;;;;4981537;28;20487;-87
2024/02/25 08:48:56;;;;;;;1.13;0.70;;;;;;;;;;4978356;28;20447;-83
2024/02/25 08:51:36;;;;;;;0.70;0.60;;;;;;;;;;4979400;28;20469;-84
2024/02/25 08:54:07;;;;;;;0.87;0.60;;;;;;;;;;4976384;28;20532;-87
2024/02/25 08:56:44;;;;;;;0.50;0.50;;;;;;;;;;4979309;28;20491;-85
2024/02/25 08:59:19;;;;;;;1.13;0.60;;;;;;;;;;4971288;28;20461;-84
2024/02/25 09:04:44;;;;;;;0.77;0.70;;;;;;;;;;4918428;28;20484;-82
2024/02/25 09:07:20;;;;;;;0.60;0.50;;;;;;;;;;4917102;29;20491;-84
2024/02/25 09:09:58;;;;;;;0.50;0.50;;;;;;;;;;4911354;29;20455;-84
2024/02/25 09:12:38;;;;;;;0.40;0.40;;;;;;;;;;4915140;29;20472;-84
2024/02/25 09:15:14;;;;;;;0.60;0.50;;;;;;;;;;4903687;29;20459;-87
2024/02/25 09:17:46;;;;;;;0.50;0.50;;;;;;;;;;4908657;29;20466;-87
2024/02/25 09:20:19;;;;;;;0.57;0.50;;;;;;;;;;4907650;29;20482;-85
2024/02/25 09:23:01;;;;;;;1.17;0.40;;;;;;;;;;4902092;29;20912;-85
2024/02/25 09:25:43;;;;;;;1.40;0.60;;;;;;;;;;4907597;29;20581;-84
2024/02/25 09:28:18;;;;;;;0.40;0.40;;;;;;;;;;4897531;29;20624;-85
2024/02/25 09:31:02;;;;;;;0.40;0.40;;;;;;;;;;4900947;29;20476;-85
2024/02/25 09:33:50;;;;;;;0.40;0.30;;;;;;;;;;4901984;29;20563;-86
2024/02/25 09:36:43;;;;;;;0.37;0.30;;;;;;;;;;4901255;29;20466;-85
2024/02/25 09:39:16;;;;;;;0.73;0.40;;;;;;;;;;4903223;29;20449;-84
2024/02/25 09:41:58;;;;;;;0.30;0.30;;;;;;;;;;4898770;29;20458;-84
2024/02/25 09:44:32;;;;;;;0.67;0.40;;;;;;;;;;4901776;29;20472;-86
2024/02/25 09:47:12;;;;;;;0.50;0.40;;;;;;;;;;4906750;29;20516;-84
2024/02/25 09:49:44;;;;;;;0.50;0.40;;;;;;;;;;4919432;29;20491;-87
2024/02/25 09:52:17;;;;;;;1.00;0.50;;;;;;;;;;4902404;29;20479;-83
2024/02/25 09:54:46;;;;;;;2.73;0.63;;;;;;;;;;4912148;29;21183;-87
2024/02/25 09:57:20;;;;;;;0.33;0.33;;;;;;;;;;4894367;29;20906;-85
2024/02/25 10:00:00;;;;;;;0.50;0.40;;;;;;;;;;4906776;29;20451;-85
2024/02/25 10:02:35;;;;;;;0.50;0.40;;;;;;;;;;4916964;29;20484;-86
2024/02/25 10:05:19;;;;;;;0.40;0.40;;;;;;;;;;4893474;29;20475;-83
2024/02/25 10:08:21;;;;;;;0.40;0.40;;;;;;;;;;4915221;29;20501;-84
2024/02/25 10:10:55;;;;;;;1.50;0.50;;;;;;;;;;4885137;29;20469;-85
2024/02/25 10:13:30;;;;;;;0.60;0.53;;;;;;;;;;4891131;29;20538;-82
2024/02/25 10:16:34;;;;;;;1.40;0.60;;;;;;;;;;4911356;29;20463;-87
2024/02/25 10:19:29;;;;;;;0.87;0.47;;;;;;;;;;4903358;29;20449;-84
2024/02/25 10:22:11;;;;;;;0.70;0.40;;;;;;;;;;4917728;29;20436;-84
2024/02/25 10:24:50;;;;;;;0.70;0.60;;;;;;;;;;4895859;29;20506;-83
2024/02/25 10:27:30;;;;;;;0.83;0.43;;;;;;;;;;4898385;29;20479;-86
2024/02/25 10:30:13;;;;;;;1.13;0.30;;;;;;;;;;4897205;29;20469;-87
2024/02/25 10:33:17;;;;;;;0.70;0.70;;;;;;;;;;4904108;29;20451;-86
2024/02/25 10:36:06;;;;;;;0.60;0.50;;;;;;;;;;4919151;29;20435;-84
2024/02/25 10:38:44;;;;;;;2.50;0.60;;;;;;;;;;4919357;29;20446;-83
2024/02/25 10:41:26;;;;;;;1.07;0.47;;;;;;;;;;4907263;29;20459;-85
2024/02/25 10:44:07;;;;;;;0.53;0.50;;;;;;;;;;4922660;29;20485;-85
2024/02/25 10:46:49;;;;;;;0.50;0.40;;;;;;;;;;4894959;29;20564;-84
2024/02/25 10:49:32;;;;;;;1.97;0.53;;;;;;;;;;4901899;29;20459;-85
2024/02/25 10:52:23;;;;;;;0.40;0.40;;;;;;;;;;4904065;29;20488;-86
2024/02/25 10:54:53;;;;;;;0.50;0.40;;;;;;;;;;4916020;29;20484;-85
2024/02/25 10:57:22;;;;;;;0.70;0.70;;;;;;;;;;4921344;28;20439;-87
2024/02/25 11:00:11;;;;;;;1.00;0.53;;;;;;;;;;4925641;28;20489;-84
2024/02/25 11:02:46;;;;;;;1.53;0.67;;;;;;;;;;4900345;29;20858;-87
2024/02/25 11:05:29;;;;;;;2.63;0.60;;;;;;;;;;4920530;29;20459;-84
2024/02/25 11:08:01;;;;;;;0.60;0.40;;;;;;;;;;4932927;29;20546;-87
2024/02/25 11:17:47;;;;;;;1.03;0.60;;;;;;;;;;5095705;23;20490;-86
2024/02/25 11:20:32;;;;;;;0.73;0.50;;;;;;;;;;5004489;28;20455;-85
2024/02/25 11:23:06;;;;;;;0.40;0.40;;;;;;;;;;4964538;28;20498;-84
2024/02/25 11:25:41;;;;;;;1.33;0.73;;;;;;;;;;5007728;28;20453;-85
2024/02/25 11:28:30;;;;;;;0.60;0.40;;;;;;;;;;5016636;28;20532;-86
2024/02/25 11:31:08;;;;;;;1.43;0.87;;;;;;;;;;5008892;28;20782;-84
2024/02/25 11:33:51;;;;;;;0.50;0.50;;;;;;;;;;4994521;28;21924;-84
2024/02/25 11:36:22;;;;;;;1.23;0.53;;;;;;;;;;5000515;28;20823;-87
2024/02/25 11:38:49;;;;;;;0.50;0.50;;;;;;;;;;4992559;28;20538;-85
2024/02/25 11:41:22;;;;;;;0.87;0.47;;;;;;;;;;4990798;28;20453;-84
2024/02/25 11:44:00;;;;;;;1.57;0.60;;;;;;;;;;5010242;28;20513;-83
2024/02/25 11:46:35;;;;;;;0.90;0.60;;;;;;;;;;5001071;28;22529;-85
2024/02/25 11:51:47;;;;;;;0.73;0.50;;;;;;;;;;4995388;28;20456;-85
2024/02/25 11:54:23;;;;;;;2.10;0.60;;;;;;;;;;4964012;28;20461;-84
2024/02/25 11:56:52;;;;;;;0.67;0.50;;;;;;;;;;4966557;28;20456;-83
2024/02/25 11:59:32;;;;;;;0.67;0.50;;;;;;;;;;4962791;28;20467;-85
2024/02/25 12:02:34;;;;;;;0.93;0.60;;;;;;;;;;4961323;28;20536;-83
2024/02/25 12:05:16;;;;;;;1.17;0.50;;;;;;;;;;4936337;28;20465;-84
2024/02/25 12:08:19;;;;;;;2.00;1.80;;;;;;;;;;4935071;28;20477;-86
2024/02/25 12:11:11;;;;;;;2.40;1.10;;;;;;;;;;4955646;29;20449;-87
2024/02/25 12:14:18;;;;;;;;;;;;;;;;;;;;;
2024/02/25 12:17:15;;;;;;;0.77;0.47;;;;;;;;;;4953113;28;21304;-86
2024/02/25 12:20:17;;;;;;;;;;;;;;;;;;;;;
2024/02/25 12:22:53;;;;;;;0.40;0.40;;;;;;;;;;4966616;28;20516;-83
2024/02/25 12:25:33;;;;;;;2.73;0.60;;;;;;;;;;4971525;28;20544;-86
2024/02/25 12:28:36;;;;;;;0.50;0.43;;;;;;;;;;4976862;28;20481;-82
2024/02/25 12:32:09;;;;;;;;;;;;;;;;;;;;;
2024/02/25 12:35:03;;;;;;;0.73;0.40;;;;;;;;;;4971680;28;20442;-86
2024/02/25 12:37:50;;;;;;;0.47;0.40;;;;;;;;;;4971359;28;20445;-84
2024/02/25 12:40:49;;;;;;;0.60;0.50;;;;;;;;;;4971887;28;21252;-86
2024/02/25 12:43:21;;;;;;;0.50;0.47;;;;;;;;;;4948866;28;20552;-86
2024/02/25 12:46:00;;;;;;;1.80;0.50;;;;;;;;;;4969753;28;20473;-85
2024/02/25 12:48:37;;;;;;;0.50;0.50;;;;;;;;;;4951253;28;20543;-87
2024/02/25 12:51:06;;;;;;;0.60;0.60;;;;;;;;;;4965567;28;20535;-85
2024/02/25 12:53:37;;;;;;;1.57;0.60;;;;;;;;;;4963117;28;20587;-85
2024/02/25 12:56:11;;;;;;;1.00;0.50;;;;;;;;;;4965653;28;20465;-85
2024/02/25 12:58:48;;;;;;;0.40;0.40;;;;;;;;;;4962492;28;20465;-85
2024/02/25 13:01:29;;;;;;;0.50;0.43;;;;;;;;;;4961625;28;20476;-83
2024/02/25 13:04:09;;;;;;;1.90;0.60;;;;;;;;;;4948297;28;20479;-84
2024/02/25 13:06:58;;;;;;;0.60;0.60;;;;;;;;;;4963104;28;20464;-88
2024/02/25 13:09:29;;;;;;;1.10;0.60;;;;;;;;;;4949894;28;20559;-84
2024/02/25 13:12:07;;;;;;;0.60;0.60;;;;;;;;;;4948687;28;20461;-84
2024/02/25 13:14:44;;;;;;;0.60;0.50;;;;;;;;;;4950896;28;20449;-85
2024/02/25 13:17:24;;;;;;;2.10;0.83;;;;;;;;;;4947808;28;20530;-84
2024/02/25 13:19:57;;;;;;;1.27;0.80;;;;;;;;;;4952187;28;20460;-87
2024/02/25 13:22:27;;;;;;;4.00;0.70;;;;;;;;;;4947131;28;20495;-86
2024/02/25 13:25:17;;;;;;;0.60;0.60;;;;;;;;;;4935179;29;20453;-86
2024/02/25 13:27:55;;;;;;;1.23;0.53;;;;;;;;;;4956250;28;20580;-83
2024/02/25 13:30:35;;;;;;;0.50;0.50;;;;;;;;;;4951855;28;20466;-83
2024/02/25 13:33:20;;;;;;;0.83;0.70;;;;;;;;;;4896471;28;20476;-84
2024/02/25 13:36:08;;;;;;;2.33;0.67;;;;;;;;;;4953206;28;20484;-85
2024/02/25 13:38:43;;;;;;;1.20;1.07;;;;;;;;;;4965035;28;20481;-88
2024/02/25 13:41:14;;;;;;;0.80;0.70;;;;;;;;;;4952430;28;20474;-85
2024/02/25 13:43:44;;;;;;;0.63;0.60;;;;;;;;;;4951758;28;20473;-83
2024/02/25 13:46:44;;;;;;;1.03;0.70;;;;;;;;;;4963930;28;20469;-86
2024/02/25 13:49:23;;;;;;;0.63;0.50;;;;;;;;;;4969587;28;20441;-86
2024/02/25 13:52:05;;;;;;;2.00;0.70;;;;;;;;;;4954556;28;20456;-84
2024/02/25 13:54:46;;;;;;;0.70;0.50;;;;;;;;;;4952033;28;20847;-86
2024/02/25 13:57:27;;;;;;;0.83;0.50;;;;;;;;;;4963235;28;20457;-85
2024/02/25 14:07:26;;;;;;;2.30;0.90;;;;;;;;;;4960080;28;20484;-85
2024/02/25 14:10:24;;;;;;;1.20;0.60;;;;;;;;;;4957099;28;20461;-86
2024/02/25 14:13:20;;;;;;;4.57;0.63;;;;;;;;;;4953284;28;20554;-83
2024/02/25 14:16:27;;;;;;;1.77;0.70;;;;;;;;;;4951121;28;20938;-85
2024/02/25 14:22:01;;;;;;;2.77;0.90;;;;;;;;;;5009047;28;20478;-86
2024/02/25 14:25:05;;;;;;;1.53;1.00;;;;;;;;;;4976110;28;20454;-86
2024/02/25 14:27:53;;;;;;;0.80;0.60;;;;;;;;;;4990247;28;21106;-86
2024/02/25 14:30:29;;;;;;;1.57;1.00;;;;;;;;;;4987271;28;20580;-88
2024/02/25 14:33:06;;;;;;;0.50;0.50;;;;;;;;;;4977948;28;20479;-84
2024/02/25 14:35:49;;;;;;;0.80;0.60;;;;;;;;;;4965842;28;20451;-83
2024/02/25 14:38:56;;;;;;;2.90;0.70;;;;;;;;;;4984603;28;20946;-83
2024/02/25 14:41:33;;;;;;;0.93;0.80;;;;;;;;;;4984805;28;20464;-85
2024/02/25 14:44:08;;;;;;;0.70;0.50;;;;;;;;;;4988533;28;20464;-86
2024/02/25 14:47:01;;;;;;;2.20;0.83;;;;;;;;;;5002077;28;20435;-86
2024/02/25 14:49:32;;;;;;;3.53;0.60;;;;;;;;;;4985506;28;20452;-86
2024/02/25 14:52:18;;;;;;;3.10;0.60;;;;;;;;;;4996963;28;20476;-86
2024/02/25 14:55:05;;;;;;;1.00;0.50;;;;;;;;;;4995651;28;20438;-83
2024/02/25 14:57:35;;;;;;;0.97;0.60;;;;;;;;;;4997320;28;20464;-87
2024/02/25 15:00:21;;;;;;;0.50;0.50;;;;;;;;;;4985208;28;20478;-84
2024/02/25 15:02:58;;;;;;;1.83;1.53;;;;;;;;;;4997811;28;20487;-86
2024/02/25 15:05:25;;;;;;;1.93;0.63;;;;;;;;;;4979789;28;20553;-85
2024/02/25 15:08:13;;;;;;;1.17;0.60;;;;;;;;;;5005156;28;20573;-86
2024/02/25 15:10:51;;;;;;;0.67;0.67;;;;;;;;;;4994673;28;20486;-84
2024/02/25 15:13:30;;;;;;;2.00;0.57;;;;;;;;;;4978741;28;20524;-83
2024/02/25 15:16:02;;;;;;;1.03;0.50;;;;;;;;;;4990395;28;20522;-85
2024/02/25 15:18:43;;;;;;;1.27;0.50;;;;;;;;;;5009977;28;20454;-83
2024/02/25 15:21:11;;;;;;;0.93;0.50;;;;;;;;;;4991972;28;20478;-85
2024/02/25 15:23:48;;;;;;;1.63;0.70;;;;;;;;;;4987566;28;20506;-86
2024/02/25 15:26:40;;;;;;;0.47;0.40;;;;;;;;;;4980962;28;20430;-86
2024/02/25 15:29:18;;;;;;;1.00;0.40;;;;;;;;;;4997038;28;20602;-86
2024/02/25 15:31:50;;;;;;;0.57;0.50;;;;;;;;;;4999217;28;20495;-84
2024/02/25 15:34:26;;;;;;;1.57;0.50;;;;;;;;;;4980409;28;20515;-86
2024/02/25 15:36:56;;;;;;;0.50;0.40;;;;;;;;;;4973845;28;20454;-85
2024/02/25 15:39:48;;;;;;;2.20;1.03;;;;;;;;;;4994692;28;20469;-85
2024/02/25 15:42:20;;;;;;;2.27;1.60;;;;;;;;;;4993336;28;20506;-87
2024/02/25 15:44:58;;;;;;;1.57;0.70;;;;;;;;;;4970756;28;20451;-85
2024/02/25 15:47:39;;;;;;;1.67;0.63;;;;;;;;;;4991617;28;20489;-86
2024/02/25 15:50:19;;;;;;;0.90;0.50;;;;;;;;;;4992633;28;20459;-85
2024/02/25 15:52:52;;;;;;;0.60;0.40;;;;;;;;;;4989797;28;20470;-86
2024/02/25 15:55:24;;;;;;;1.70;0.60;;;;;;;;;;4991192;28;20439;-84
2024/02/25 15:58:02;;;;;;;1.17;0.70;;;;;;;;;;4962036;28;20464;-84